Time;durP1;ratioP1;P1;durP2;ratioP2;P2;SDS_P1;SDS_P2;PMS_P1;PMS_P2;Temp;Humidity;BMP_temperature;BMP_pressure;BME280_temperature;BME280_humidity;BME280_pressure;Samples;Min_cycle;Max_cycle;Signal;HPM_P1;HPM_P2
2023/05/06 00:00:11;;;;;;;3.17;2.97;;;;;;;8.47;100.00;101536.63;1043982;28;20296;-79
2023/05/06 00:00:43;;;;;;;3.85;3.45;;;;;;;8.55;100.00;101533.88;1048932;28;20298;-79
2023/05/06 00:01:14;;;;;;;5.72;3.58;;;;;;;8.65;100.00;101540.53;1047976;28;20302;-79
2023/05/06 00:01:46;;;;;;;4.82;3.90;;;;;;;8.73;100.00;101534.28;1048337;28;20310;-79
2023/05/06 00:02:18;;;;;;;62.15;8.55;;;;;;;8.51;100.00;101537.91;1048139;28;20294;-79
2023/05/06 00:02:49;;;;;;;28.88;7.53;;;;;;;8.49;100.00;101530.13;1047391;28;20313;-79
2023/05/06 00:03:21;;;;;;;61.28;6.30;;;;;;;8.43;100.00;101533.50;1047970;28;20696;-79
2023/05/06 00:03:52;;;;;;;14.15;3.53;;;;;;;8.44;100.00;101531.69;1052166;28;20626;-79
2023/05/06 00:04:25;;;;;;;21.05;4.88;;;;;;;8.44;100.00;101531.69;1052299;28;20302;-79
2023/05/06 00:04:57;;;;;;;14.30;4.47;;;;;;;8.52;100.00;101528.94;1052041;28;20290;-79
2023/05/06 00:05:28;;;;;;;6.60;4.05;;;;;;;8.54;100.00;101534.88;1051485;28;20294;-79
2023/05/06 00:06:05;;;;;;;4.80;3.63;;;;;;;8.58;100.00;101530.84;1051975;28;20298;-79
2023/05/06 00:06:36;;;;;;;10.43;4.00;;;;;;;8.61;100.00;101528.63;1051994;28;20302;-79
2023/05/06 00:07:08;;;;;;;14.32;4.78;;;;;;;8.57;100.00;101526.56;1051927;28;20385;-79
2023/05/06 00:07:40;;;;;;;26.58;3.78;;;;;;;8.47;100.00;101528.66;1052322;28;20293;-79
2023/05/06 00:08:12;;;;;;;44.28;4.50;;;;;;;8.44;100.00;101526.38;1052059;28;20306;-79
2023/05/06 00:08:44;;;;;;;23.58;4.25;;;;;;;8.37;100.00;101526.28;1051532;28;20294;-79
2023/05/06 00:09:16;;;;;;;60.97;4.38;;;;;;;8.28;100.00;101528.19;1052198;28;20305;-80
2023/05/06 00:09:48;;;;;;;11.63;4.10;;;;;;;8.30;100.00;101526.19;1051679;28;20350;-79
2023/05/06 00:10:20;;;;;;;24.33;3.58;;;;;;;8.31;100.00;101522.53;1051985;28;20308;-79
2023/05/06 00:10:51;;;;;;;8.80;2.75;;;;;;;8.47;100.00;101528.66;1050350;28;20299;-79
2023/05/06 00:11:23;;;;;;;19.23;2.78;;;;;;;8.64;100.00;101522.94;1052087;28;20298;-79
2023/05/06 00:11:55;;;;;;;26.27;3.60;;;;;;;8.59;100.00;101519.22;1052223;28;20290;-79
2023/05/06 00:12:27;;;;;;;40.92;3.67;;;;;;;8.59;100.00;101521.88;1052260;28;20302;-79
2023/05/06 00:12:58;;;;;;;19.48;3.35;;;;;;;8.70;100.00;101524.03;1052030;28;20298;-79
2023/05/06 00:13:30;;;;;;;50.03;4.03;;;;;;;8.44;100.00;101521.88;1051901;28;20728;-79
2023/05/06 00:14:02;;;;;;;40.83;4.10;;;;;;;8.44;100.00;101526.38;1047934;28;20295;-79
2023/05/06 00:14:33;;;;;;;28.08;3.83;;;;;;;8.41;100.00;101521.44;1047248;28;20305;-80
2023/05/06 00:15:06;;;;;;;24.40;4.22;;;;;;;8.48;100.00;101519.69;1044239;28;20662;-79
2023/05/06 00:15:38;;;;;;;46.75;4.15;;;;;;;8.49;100.00;101523.97;1048686;28;20306;-79
2023/05/06 00:16:10;;;;;;;47.75;4.85;;;;;;;8.36;100.00;101509.53;1047246;28;20324;-79
2023/05/06 00:16:42;;;;;;;29.77;2.75;;;;;;;8.23;100.00;101519.97;1044416;28;20878;-79
2023/05/06 00:17:13;;;;;;;20.65;3.80;;;;;;;8.18;100.00;101522.31;1047246;28;20497;-79
2023/05/06 00:17:45;;;;;;;21.92;2.53;;;;;;;8.21;100.00;101519.31;1048111;28;20302;-79
2023/05/06 00:18:17;;;;;;;13.80;3.20;;;;;;;8.28;100.00;101527.38;1051724;28;20305;-79
2023/05/06 00:18:49;;;;;;;9.60;3.47;;;;;;;8.14;100.00;101517.56;1052229;28;20286;-79
2023/05/06 00:19:21;;;;;;;34.55;4.00;;;;;;;8.17;100.00;101519.88;1051820;28;20806;-79
2023/05/06 00:19:54;;;;;;;8.98;3.45;;;;;;;8.54;100.00;101516.31;1051822;28;20363;-79
2023/05/06 00:20:27;;;;;;;11.27;4.03;;;;;;;8.60;100.00;101523.53;1052048;28;20301;-79
2023/05/06 00:20:59;;;;;;;7.35;2.72;;;;;;;8.36;100.00;101512.19;1051769;28;20344;-79
2023/05/06 00:21:30;;;;;;;49.28;4.30;;;;;;;8.24;100.00;101521.63;1047443;28;20634;-79
2023/05/06 00:22:02;;;;;;;18.60;4.43;;;;;;;8.31;100.00;101517.22;1048081;28;20356;-79
2023/05/06 00:22:34;;;;;;;3.70;3.40;;;;;;;8.70;100.00;101523.22;1048358;28;20310;-79
2023/05/06 00:23:05;;;;;;;18.42;4.50;;;;;;;8.52;100.00;101518.31;1047741;28;20561;-79
2023/05/06 00:23:37;;;;;;;61.25;5.85;;;;;;;8.37;100.00;101515.69;1048093;28;20697;-79
2023/05/06 00:24:08;;;;;;;28.90;4.60;;;;;;;8.29;100.00;101513.91;1047714;28;20310;-79
2023/05/06 00:24:40;;;;;;;10.27;4.03;;;;;;;8.25;100.00;101517.94;1043720;28;20698;-79
2023/05/06 00:25:12;;;;;;;7.97;3.92;;;;;;;8.13;100.00;101514.09;1042293;28;20296;-79
2023/05/06 00:25:44;;;;;;;5.15;3.15;;;;;;;8.12;100.00;101507.16;1043429;28;20701;-79
2023/05/06 00:26:16;;;;;;;8.25;3.85;;;;;;;7.92;100.00;101506.88;1044214;28;20283;-79
2023/05/06 00:26:47;;;;;;;3.92;3.60;;;;;;;7.86;100.00;101517.38;1040992;28;20292;-79
2023/05/06 00:27:19;;;;;;;8.10;3.75;;;;;;;7.87;100.00;101509.25;1039742;28;20315;-79
2023/05/06 00:27:51;;;;;;;13.00;3.10;;;;;;;7.79;100.00;101516.47;1039765;28;20304;-79
2023/05/06 00:28:23;;;;;;;19.55;3.45;;;;;;;7.79;100.00;101508.50;1043703;28;20737;-79
2023/05/06 00:28:55;;;;;;;39.85;4.93;;;;;;;7.71;100.00;101515.56;1047863;28;20302;-79
2023/05/06 00:29:26;;;;;;;14.48;4.07;;;;;;;7.71;100.00;101512.91;1048205;28;20310;-79
2023/05/06 00:29:58;;;;;;;10.65;4.30;;;;;;;7.71;100.00;101515.56;1051592;28;20660;-79
2023/05/06 00:30:30;;;;;;;18.85;4.43;;;;;;;7.71;100.00;101509.44;1047422;28;20444;-79
2023/05/06 00:31:02;;;;;;;8.27;3.92;;;;;;;7.71;100.00;101515.56;1048265;28;20305;-79
2023/05/06 00:31:34;;;;;;;3.38;3.08;;;;;;;7.68;100.00;101515.91;1051566;28;20510;-79
2023/05/06 00:32:05;;;;;;;6.38;4.03;;;;;;;7.71;100.00;101520.84;1051772;28;20392;-79
2023/05/06 00:32:37;;;;;;;3.35;3.15;;;;;;;7.67;100.00;101511.63;1048260;28;20295;-79
2023/05/06 00:33:09;;;;;;;5.72;5.20;;;;;;;7.69;100.00;101512.25;1051689;28;20298;-79
2023/05/06 00:33:40;;;;;;;4.68;4.30;;;;;;;7.62;100.00;101508.66;1052019;28;20293;-79
2023/05/06 00:34:12;;;;;;;3.92;3.53;;;;;;;7.63;100.00;101507.66;1051823;28;20290;-79
2023/05/06 00:34:44;;;;;;;5.10;4.65;;;;;;;7.66;100.00;101517.91;1047837;28;20294;-79
2023/05/06 00:35:16;;;;;;;5.07;4.57;;;;;;;7.70;100.00;101513.09;1047717;28;20693;-79
2023/05/06 00:35:48;;;;;;;5.50;4.95;;;;;;;7.74;100.00;101512.53;1047571;28;20808;-79
2023/05/06 00:36:19;;;;;;;10.27;4.72;;;;;;;7.89;100.00;101514.38;1048251;28;21686;-79
2023/05/06 00:36:51;;;;;;;4.28;3.88;;;;;;;7.99;100.00;101513.09;1052364;28;20657;-79
2023/05/06 00:37:22;;;;;;;5.10;4.60;;;;;;;8.20;100.00;101517.66;1051361;28;20885;-79
2023/05/06 00:38:06;;;;;;;4.55;4.15;;;;;;;8.39;100.00;101515.50;1047478;28;21664;-79
2023/05/06 00:38:38;;;;;;;3.95;2.78;;;;;;;8.41;100.00;101513.47;1047536;28;20294;-79
2023/05/06 00:39:09;;;;;;;3.20;2.63;;;;;;;8.46;100.00;101517.22;1041339;28;20693;-79
2023/05/06 00:39:41;;;;;;;4.00;2.92;;;;;;;8.55;100.00;101509.97;1037133;28;20391;-79
2023/05/06 00:40:13;;;;;;;7.60;2.42;;;;;;;8.57;100.00;101505.31;1039434;28;20304;-79
2023/05/06 00:40:44;;;;;;;4.13;2.25;;;;;;;8.55;100.00;101509.97;1035935;28;20309;-79
2023/05/06 00:41:16;;;;;;;7.47;3.22;;;;;;;8.51;100.00;101512.19;1041576;28;20800;-79
2023/05/06 00:41:48;;;;;;;12.13;3.17;;;;;;;8.44;100.00;101515.75;1046874;28;20942;-78
2023/05/06 00:42:22;;;;;;;15.57;3.60;;;;;;;8.48;100.00;101511.72;1048158;28;20290;-79
2023/05/06 00:42:53;;;;;;;24.20;4.43;;;;;;;8.44;100.00;101513.91;1048669;28;20290;-79
2023/05/06 00:43:25;;;;;;;32.88;5.15;;;;;;;8.35;100.00;101518.50;1047172;28;20306;-79
2023/05/06 00:43:56;;;;;;;35.50;4.85;;;;;;;8.24;100.00;101516.31;1047529;28;20307;-79
2023/05/06 00:44:29;;;;;;;16.67;3.95;;;;;;;8.24;100.00;101516.31;1047439;28;20291;-79
2023/05/06 00:45:01;;;;;;;3.38;3.00;;;;;;;8.50;100.00;101520.34;1047940;28;20803;-79
2023/05/06 00:45:32;;;;;;;7.50;3.00;;;;;;;8.54;100.00;101516.31;1051501;28;20294;-79
2023/05/06 00:46:05;;;;;;;33.92;5.53;;;;;;;8.52;100.00;101519.16;1048064;28;20950;-79
2023/05/06 00:46:37;;;;;;;15.40;5.53;;;;;;;8.54;100.00;101521.63;1042878;28;20348;-79
2023/05/06 00:47:09;;;;;;;27.55;4.80;;;;;;;8.46;100.00;101522.53;1043403;28;20303;-79
2023/05/06 00:47:41;;;;;;;8.93;3.30;;;;;;;8.53;100.00;101523.44;1044443;28;20923;-79
2023/05/06 00:48:16;;;;;;;36.92;5.80;;;;;;;8.23;100.00;101519.16;1047001;28;20296;-79
2023/05/06 00:48:48;;;;;;;40.22;5.10;;;;;;;8.14;100.00;101517.56;1042855;28;20303;-79
2023/05/06 00:49:20;;;;;;;14.90;4.60;;;;;;;8.24;100.00;101521.63;1043265;28;20307;-79
2023/05/06 00:49:52;;;;;;;9.95;3.15;;;;;;;8.38;100.00;101519.16;1035779;28;20312;-79
2023/05/06 00:50:27;;;;;;;35.55;4.50;;;;;;;8.27;100.00;101521.25;1041653;28;20303;-79
2023/05/06 00:50:58;;;;;;;22.27;4.55;;;;;;;8.14;100.00;101515.75;1051076;28;20301;-79
2023/05/06 00:51:31;;;;;;;7.78;3.85;;;;;;;8.17;100.00;101522.50;1053719;27;20794;-79
2023/05/06 00:52:02;;;;;;;8.23;3.83;;;;;;;8.02;100.00;101518.03;1053600;28;20293;-79
2023/05/06 00:52:34;;;;;;;15.75;3.28;;;;;;;7.92;100.00;101521.94;1046625;28;20325;-79
2023/05/06 00:53:07;;;;;;;27.20;3.17;;;;;;;7.83;100.00;101520.41;1047704;28;20299;-79
2023/05/06 00:53:39;;;;;;;15.05;3.53;;;;;;;7.79;100.00;101522.59;1051846;28;20707;-79
2023/05/06 00:54:11;;;;;;;6.93;3.58;;;;;;;7.76;100.00;101515.00;1052524;27;20658;-79
2023/05/06 00:54:43;;;;;;;15.23;3.40;;;;;;;7.65;100.00;101521.56;1055899;28;20297;-79
2023/05/06 00:55:15;;;;;;;9.25;3.10;;;;;;;7.60;100.00;101515.16;1055413;28;20304;-79
2023/05/06 00:55:48;;;;;;;37.25;4.55;;;;;;;7.53;100.00;101523.00;1047286;28;20307;-79
2023/05/06 00:56:20;;;;;;;5.18;3.78;;;;;;;7.60;100.00;101518.63;1043035;28;20303;-79
2023/05/06 00:56:52;;;;;;;4.35;3.95;;;;;;;7.66;100.00;101523.19;1039465;28;20311;-79
2023/05/06 00:57:24;;;;;;;12.13;4.78;;;;;;;7.61;100.00;101522.91;1041602;28;20296;-79
2023/05/06 00:57:56;;;;;;;18.95;5.13;;;;;;;7.57;100.00;101515.50;1043559;28;20306;-79
2023/05/06 00:58:28;;;;;;;4.88;4.13;;;;;;;7.66;100.00;101522.38;1043240;28;20310;-79
2023/05/06 00:58:59;;;;;;;6.32;4.25;;;;;;;7.69;100.00;101517.56;1039161;28;20296;-79
2023/05/06 00:59:31;;;;;;;19.80;4.97;;;;;;;7.61;100.00;101516.78;1039458;28;20308;-79
2023/05/06 01:00:05;;;;;;;60.40;6.85;;;;;;;7.51;100.00;101508.28;1044354;28;20292;-80
2023/05/06 01:00:37;;;;;;;20.73;4.05;;;;;;;7.49;100.00;101518.25;1048337;28;20298;-79
2023/05/06 01:01:09;;;;;;;16.08;4.28;;;;;;;7.41;100.00;101519.16;1048239;28;20441;-79
2023/05/06 01:01:41;;;;;;;31.00;5.28;;;;;;;7.38;100.00;101517.66;1051812;28;20850;-79
2023/05/06 01:02:13;;;;;;;15.27;4.82;;;;;;;7.40;100.00;101512.19;1051039;28;20301;-79
2023/05/06 01:02:45;;;;;;;22.92;5.63;;;;;;;7.44;100.00;101518.78;1051708;28;20290;-79
2023/05/06 01:03:18;;;;;;;31.13;5.28;;;;;;;7.48;100.00;101514.78;1043267;28;20311;-80
2023/05/06 01:03:55;;;;;;;18.35;6.07;;;;;;;7.47;100.00;101515.78;1047601;28;20375;-79
2023/05/06 01:04:28;;;;;;;30.23;5.88;;;;;;;7.58;100.00;101510.03;1049404;28;20298;-79
2023/05/06 01:05:00;;;;;;;53.83;7.95;;;;;;;7.51;100.00;101509.09;1045804;28;20318;-79
2023/05/06 01:06:00;;;;;;;42.22;7.40;;;;;;;7.56;100.00;101504.09;1050200;28;20386;-79
2023/05/06 01:06:49;;;;;;;5.28;4.78;;;;;;;7.89;100.00;101509.06;1037901;28;20303;-79
2023/05/06 01:07:33;;;;;;;6.45;3.50;;;;;;;7.86;100.00;101506.78;1036043;28;20302;-79
2023/05/06 01:08:31;;;;;;;6.40;3.47;;;;;;;7.62;100.00;101503.34;1047345;28;20777;-79
2023/05/06 01:09:47;;;;;;;4.32;3.67;;;;;;;7.91;100.00;101509.69;1047626;28;20317;-79
2023/05/06 01:10:35;;;;;;;9.32;4.35;;;;;;;8.18;100.00;101511.72;1048483;28;20826;-79
2023/05/06 01:11:18;;;;;;;7.03;3.80;;;;;;;8.36;100.00;101508.72;1049645;28;20320;-79
2023/05/06 01:11:58;;;;;;;14.85;4.47;;;;;;;8.35;100.00;101507.91;1050286;28;20372;-80
2023/05/06 01:12:36;;;;;;;12.32;3.70;;;;;;;8.06;100.00;101505.22;1051149;28;20545;-79
2023/05/06 01:13:42;;;;;;;4.15;3.40;;;;;;;7.96;100.00;101502.88;1047339;28;20907;-79
2023/05/06 01:14:37;;;;;;;15.95;3.50;;;;;;;8.02;100.00;101501.31;1034749;28;20296;-80
2023/05/06 01:15:20;;;;;;;41.67;6.65;;;;;;;7.99;100.00;101501.69;1051533;28;20788;-79
2023/05/06 01:15:54;;;;;;;34.25;4.47;;;;;;;8.01;100.00;101499.66;1050264;28;20306;-79
2023/05/06 01:16:28;;;;;;;92.53;7.88;;;;;;;8.08;100.00;101503.22;1047126;28;20307;-79
2023/05/06 01:17:03;;;;;;;32.60;5.05;;;;;;;8.02;100.00;101501.31;1043231;28;20302;-80
2023/05/06 01:17:38;;;;;;;17.35;3.63;;;;;;;8.06;100.00;101494.63;1044702;28;20662;-79
2023/05/06 01:18:14;;;;;;;10.02;3.63;;;;;;;7.92;100.00;101500.72;1041067;28;20319;-79
2023/05/06 01:18:48;;;;;;;11.20;3.75;;;;;;;7.91;100.00;101493.78;1041242;28;20342;-79
2023/05/06 01:19:48;;;;;;;6.93;4.15;;;;;;;7.97;100.00;101503.69;1039416;28;20307;-80
2023/05/06 01:20:20;;;;;;;14.20;3.72;;;;;;;7.96;100.00;101499.38;1043823;28;20360;-79
2023/05/06 01:20:54;;;;;;;15.57;4.90;;;;;;;8.14;100.00;101505.13;1043157;28;20552;-79
2023/05/06 01:21:33;;;;;;;3.38;3.00;;;;;;;8.19;100.00;101502.75;1038948;28;20387;-79
2023/05/06 01:22:06;;;;;;;6.70;4.55;;;;;;;8.36;100.00;101506.88;1036883;28;20324;-79
2023/05/06 01:22:38;;;;;;;7.88;4.25;;;;;;;8.50;100.00;101507.88;1036795;28;20308;-79
2023/05/06 01:23:11;;;;;;;15.20;6.60;;;;;;;8.48;100.00;101509.06;1037043;28;20296;-79
2023/05/06 01:23:50;;;;;;;7.80;5.80;;;;;;;8.52;100.00;101513.84;1036934;28;20728;-79
2023/05/06 01:24:34;;;;;;;13.40;4.85;;;;;;;8.54;100.00;101513.66;1042942;28;20661;-79
2023/05/06 01:25:05;;;;;;;14.48;4.97;;;;;;;8.46;100.00;101513.72;1050234;28;20302;-79
2023/05/06 01:25:37;;;;;;;18.63;4.93;;;;;;;8.48;100.00;101509.88;1046136;28;20299;-80
2023/05/06 01:26:09;;;;;;;10.50;5.80;;;;;;;8.46;100.00;101513.72;1042786;28;20307;-79
2023/05/06 01:26:42;;;;;;;5.82;4.90;;;;;;;8.31;100.00;101511.91;1039455;28;20332;-79
2023/05/06 01:27:15;;;;;;;12.68;4.38;;;;;;;8.14;100.00;101514.91;1036001;28;20313;-79
2023/05/06 01:27:48;;;;;;;16.52;4.25;;;;;;;8.00;100.00;101509.44;1043962;28;20299;-79
2023/05/06 01:28:19;;;;;;;20.38;5.00;;;;;;;7.90;100.00;101508.06;1045573;28;20682;-79
2023/05/06 01:28:52;;;;;;;8.48;4.78;;;;;;;8.00;100.00;101503.31;1041452;28;20300;-79
2023/05/06 01:29:23;;;;;;;31.92;8.45;;;;;;;7.90;100.00;101502.75;1046447;28;20661;-79
2023/05/06 01:29:56;;;;;;;9.40;4.78;;;;;;;7.95;100.00;101501.22;1044289;28;20665;-79
2023/05/06 01:30:33;;;;;;;11.93;4.43;;;;;;;7.92;100.00;101509.50;1040806;28;20694;-79
2023/05/06 01:31:08;;;;;;;45.33;5.20;;;;;;;7.90;100.00;101502.75;1047297;28;20321;-79
2023/05/06 01:31:46;;;;;;;26.17;4.35;;;;;;;7.86;100.00;101509.44;1045142;28;20370;-80
2023/05/06 01:32:48;;;;;;;28.45;4.25;;;;;;;7.96;100.00;101508.16;1041471;28;20311;-79
2023/05/06 01:33:34;;;;;;;27.88;5.65;;;;;;;7.86;100.00;101510.25;1040504;28;20304;-79
2023/05/06 01:34:11;;;;;;;12.20;4.63;;;;;;;7.82;100.00;101511.63;1048027;28;20303;-80
2023/05/06 01:34:49;;;;;;;14.25;4.20;;;;;;;7.89;100.00;101504.56;1047328;28;20299;-80
2023/05/06 01:35:50;;;;;;;4.03;3.55;;;;;;;8.24;100.00;101503.03;1049586;28;20299;-80
2023/05/06 01:36:57;;;;;;;15.23;4.80;;;;;;;8.35;100.00;101507.06;1031220;28;20854;-80
2023/05/06 01:37:40;;;;;;;5.80;5.10;;;;;;;8.31;100.00;101509.25;1032600;28;20304;-80
2023/05/06 01:38:26;;;;;;;7.13;5.47;;;;;;;8.01;100.00;101508.44;1047080;28;20310;-80
2023/05/06 01:39:12;;;;;;;12.35;4.68;;;;;;;8.11;100.00;101512.63;1047068;28;20298;-79
2023/05/06 01:39:47;;;;;;;13.80;5.43;;;;;;;8.20;100.00;101512.34;1049028;28;20674;-80
2023/05/06 01:40:19;;;;;;;17.98;6.28;;;;;;;8.30;100.00;101507.59;1047215;28;20326;-80
2023/05/06 01:40:54;;;;;;;17.63;5.53;;;;;;;8.42;100.00;101517.78;1047999;28;20341;-79
2023/05/06 01:41:26;;;;;;;9.15;6.65;;;;;;;8.39;100.00;101518.16;1044475;28;20962;-80
2023/05/06 01:41:59;;;;;;;16.58;6.88;;;;;;;8.42;100.00;101513.28;1040057;28;20816;-80
2023/05/06 01:42:33;;;;;;;27.42;7.82;;;;;;;8.54;100.00;101517.13;1043121;28;20287;-80
2023/05/06 01:43:05;;;;;;;40.10;10.18;;;;;;;8.57;100.00;101515.94;1040232;28;20300;-80
2023/05/06 01:43:39;;;;;;;21.92;9.43;;;;;;;8.55;100.00;101518.78;1040150;28;20296;-79
2023/05/06 01:44:13;;;;;;;17.65;7.53;;;;;;;8.77;100.00;101517.00;1040693;28;20402;-79
2023/05/06 01:44:46;;;;;;;27.95;8.13;;;;;;;8.69;100.00;101519.72;1040229;28;20318;-79
2023/05/06 01:45:19;;;;;;;21.40;7.72;;;;;;;8.46;100.00;101524.34;1042847;28;20733;-79
2023/05/06 01:45:53;;;;;;;17.23;7.93;;;;;;;8.43;100.00;101512.28;1041364;28;20303;-79
2023/05/06 01:46:25;;;;;;;23.17;7.68;;;;;;;8.34;100.00;101516.88;1047124;28;20298;-79
2023/05/06 01:46:57;;;;;;;15.10;8.30;;;;;;;8.34;100.00;101506.25;1043273;28;20295;-79
2023/05/06 01:47:29;;;;;;;7.30;6.60;;;;;;;8.46;100.00;101509.25;1039892;28;20307;-79
2023/05/06 01:48:01;;;;;;;10.50;8.35;;;;;;;8.54;100.00;101516.31;1035021;28;20378;-80
2023/05/06 01:48:36;;;;;;;13.82;6.63;;;;;;;8.69;100.00;101517.06;1035162;28;20300;-79
2023/05/06 01:49:10;;;;;;;10.82;8.25;;;;;;;8.84;100.00;101512.56;1034216;28;20869;-79
2023/05/06 01:49:42;;;;;;;11.88;7.28;;;;;;;8.92;100.00;101519.56;1039162;28;20350;-79
2023/05/06 01:50:14;;;;;;;13.90;7.25;;;;;;;8.94;100.00;101513.06;1034713;28;20396;-79
2023/05/06 01:50:46;;;;;;;7.60;6.90;;;;;;;8.97;100.00;101518.00;1039709;28;20308;-79
2023/05/06 01:51:19;;;;;;;10.55;6.78;;;;;;;9.02;100.00;101513.94;1039795;28;20296;-79
2023/05/06 01:51:52;;;;;;;13.45;7.57;;;;;;;9.04;100.00;101511.91;1039915;28;20390;-79
2023/05/06 01:52:25;;;;;;;10.25;8.13;;;;;;;9.06;100.00;101516.06;1040954;28;20292;-79
2023/05/06 01:52:57;;;;;;;25.42;7.82;;;;;;;9.05;100.00;101509.09;1039892;28;20303;-79
2023/05/06 01:53:31;;;;;;;16.58;7.40;;;;;;;9.05;100.00;101519.72;1039594;28;20786;-79
2023/05/06 01:54:04;;;;;;;22.20;8.98;;;;;;;9.01;100.00;101512.28;1035293;28;20344;-79
2023/05/06 01:54:35;;;;;;;8.60;7.70;;;;;;;8.97;100.00;101518.00;1041469;28;20864;-79
2023/05/06 01:55:08;;;;;;;10.68;8.05;;;;;;;8.97;100.00;101517.16;1043957;28;20303;-79
2023/05/06 01:55:40;;;;;;;12.10;8.27;;;;;;;8.97;100.00;101512.69;1046427;28;20298;-79
2023/05/06 01:56:12;;;;;;;13.85;8.38;;;;;;;8.97;100.00;101512.69;1044121;28;20402;-79
2023/05/06 01:56:44;;;;;;;18.05;8.82;;;;;;;8.95;100.00;101514.72;1043428;28;20306;-79
2023/05/06 01:57:16;;;;;;;8.75;6.60;;;;;;;8.96;100.00;101513.69;1047809;28;20781;-79
2023/05/06 01:57:47;;;;;;;10.80;8.52;;;;;;;9.01;100.00;101522.94;1051021;28;20303;-79
2023/05/06 01:58:19;;;;;;;14.13;7.75;;;;;;;9.05;100.00;101513.59;1043195;28;20381;-80
2023/05/06 01:58:50;;;;;;;9.35;6.70;;;;;;;9.05;100.00;101514.41;1039114;28;20315;-80
2023/05/06 01:59:22;;;;;;;11.93;7.20;;;;;;;9.01;100.00;101518.44;1045859;28;20306;-79
2023/05/06 01:59:55;;;;;;;13.70;7.55;;;;;;;8.96;100.00;101516.34;1043463;28;20345;-79
2023/05/06 02:00:27;;;;;;;23.70;8.00;;;;;;;8.65;100.00;101513.16;1043477;28;20813;-79
2023/05/06 02:00:59;;;;;;;11.68;8.55;;;;;;;8.59;100.00;101511.25;1043053;28;20355;-79
2023/05/06 02:01:30;;;;;;;14.07;8.35;;;;;;;8.66;100.00;101509.47;1039426;28;20304;-79
2023/05/06 02:02:02;;;;;;;22.50;8.63;;;;;;;8.67;100.00;101519.91;1043422;28;20366;-79
2023/05/06 02:02:34;;;;;;;13.65;7.10;;;;;;;8.68;100.00;101512.78;1047696;28;20773;-79
2023/05/06 02:03:06;;;;;;;8.93;7.28;;;;;;;8.58;100.00;101512.25;1043223;28;20390;-79
2023/05/06 02:03:38;;;;;;;12.85;8.93;;;;;;;8.51;100.00;101522.00;1043730;28;20378;-79
2023/05/06 02:04:10;;;;;;;17.35;7.75;;;;;;;8.46;100.00;101516.38;1043393;28;20391;-79
2023/05/06 02:04:43;;;;;;;19.40;8.80;;;;;;;8.51;100.00;101516.69;1039320;28;20343;-79
2023/05/06 02:05:15;;;;;;;11.80;6.60;;;;;;;8.50;100.00;101515.84;1043670;28;20711;-79
2023/05/06 02:05:50;;;;;;;23.67;8.63;;;;;;;8.61;100.00;101518.03;1038835;28;20304;-79
2023/05/06 02:06:23;;;;;;;13.75;8.77;;;;;;;8.56;100.00;101514.28;1039904;28;20304;-79
2023/05/06 02:06:55;;;;;;;9.52;7.55;;;;;;;8.51;100.00;101511.38;1041500;28;20302;-79
2023/05/06 02:07:27;;;;;;;19.65;7.90;;;;;;;8.47;100.00;101516.19;1040979;28;20838;-79
2023/05/06 02:08:00;;;;;;;22.33;7.43;;;;;;;8.45;100.00;101514.75;1043651;28;20303;-79
2023/05/06 02:08:31;;;;;;;9.75;7.40;;;;;;;8.35;100.00;101515.03;1047498;28;20447;-79
2023/05/06 02:09:03;;;;;;;16.30;9.13;;;;;;;8.32;100.00;101513.53;1046825;28;20347;-79
2023/05/06 02:09:38;;;;;;;19.08;8.57;;;;;;;8.41;100.00;101513.47;1042976;28;20311;-79
2023/05/06 02:10:10;;;;;;;13.45;9.15;;;;;;;8.47;100.00;101510.88;1040234;28;20315;-80
2023/05/06 02:10:45;;;;;;;17.73;7.85;;;;;;;8.41;100.00;101508.97;1040234;28;20292;-79
2023/05/06 02:11:17;;;;;;;22.92;8.20;;;;;;;8.35;100.00;101513.22;1039794;28;20308;-79
2023/05/06 02:11:50;;;;;;;11.20;7.93;;;;;;;8.40;100.00;101511.81;1040161;28;20358;-79
2023/05/06 02:12:22;;;;;;;9.90;7.47;;;;;;;8.35;100.00;101510.56;1039825;28;20362;-79
2023/05/06 02:12:53;;;;;;;10.73;7.93;;;;;;;8.47;100.00;101510.06;1039574;28;20308;-79
2023/05/06 02:13:26;;;;;;;16.23;7.47;;;;;;;8.58;100.00;101506.94;1047890;28;20393;-79
2023/05/06 02:13:58;;;;;;;15.75;7.65;;;;;;;8.44;100.00;101511.25;1047841;28;20396;-79
2023/05/06 02:14:29;;;;;;;19.27;8.38;;;;;;;8.36;100.00;101503.41;1051996;28;20321;-79
2023/05/06 02:15:03;;;;;;;16.27;7.53;;;;;;;8.31;100.00;101503.13;1050505;28;20306;-79
2023/05/06 02:15:34;;;;;;;7.28;6.43;;;;;;;8.33;100.00;101509.91;1047779;28;20759;-79
2023/05/06 02:16:07;;;;;;;13.20;7.32;;;;;;;8.33;100.00;101509.06;1042972;28;20307;-79
2023/05/06 02:16:40;;;;;;;9.40;6.45;;;;;;;8.26;100.00;101506.34;1039248;28;20302;-79
2023/05/06 02:17:11;;;;;;;8.18;7.28;;;;;;;8.35;100.00;101513.22;1043642;28;20634;-79
2023/05/06 02:17:43;;;;;;;11.52;6.97;;;;;;;8.51;100.00;101508.72;1039134;28;20303;-79
2023/05/06 02:18:14;;;;;;;11.68;7.03;;;;;;;8.40;100.00;101509.16;1044171;28;20748;-79
2023/05/06 02:18:46;;;;;;;13.25;6.80;;;;;;;8.41;100.00;101510.81;1047480;28;20753;-79
2023/05/06 02:19:18;;;;;;;17.83;7.53;;;;;;;8.59;100.00;101508.59;1042881;28;20829;-79
2023/05/06 02:19:49;;;;;;;8.50;7.60;;;;;;;8.46;100.00;101509.25;1039125;28;20656;-79
2023/05/06 02:20:21;;;;;;;11.38;7.20;;;;;;;8.39;100.00;101504.88;1035114;28;20308;-79
2023/05/06 02:20:54;;;;;;;7.85;7.03;;;;;;;8.35;100.00;101513.22;1033957;28;20437;-79
2023/05/06 02:21:26;;;;;;;19.30;7.45;;;;;;;8.25;100.00;101504.69;1043839;28;20295;-79
2023/05/06 02:21:58;;;;;;;10.45;7.30;;;;;;;8.24;100.00;101511.00;1039751;28;20296;-79
2023/05/06 02:22:30;;;;;;;10.32;6.50;;;;;;;8.33;100.00;101515.22;1048112;28;20364;-79
2023/05/06 02:23:01;;;;;;;13.18;6.68;;;;;;;8.38;100.00;101516.50;1047306;28;20295;-79
2023/05/06 02:23:33;;;;;;;7.88;7.10;;;;;;;8.53;100.00;101517.31;1048021;28;20299;-79
2023/05/06 02:24:05;;;;;;;14.25;7.53;;;;;;;8.28;100.00;101512.28;1051536;28;20317;-79
2023/05/06 02:24:37;;;;;;;9.15;7.00;;;;;;;8.48;100.00;101509.06;1047846;28;20298;-79
2023/05/06 02:25:09;;;;;;;7.03;6.32;;;;;;;8.77;100.00;101517.00;1050796;28;20552;-79
2023/05/06 02:25:41;;;;;;;12.38;6.97;;;;;;;8.67;100.00;101509.31;1047516;28;21025;-79
2023/05/06 02:26:13;;;;;;;8.13;7.32;;;;;;;8.77;100.00;101511.66;1042799;28;20329;-79
2023/05/06 02:26:44;;;;;;;14.35;7.07;;;;;;;8.81;100.00;101510.28;1038954;28;20312;-79
2023/05/06 02:27:16;;;;;;;7.68;6.85;;;;;;;8.79;100.00;101507.00;1039783;28;20779;-79
2023/05/06 02:27:47;;;;;;;8.35;6.50;;;;;;;8.88;100.00;101503.19;1043085;28;20310;-79
2023/05/06 02:28:20;;;;;;;13.73;7.68;;;;;;;9.02;100.00;101508.63;1043297;28;20295;-79
2023/05/06 02:28:52;;;;;;;7.18;6.47;;;;;;;9.06;100.00;101509.94;1051710;28;20297;-79
2023/05/06 02:29:24;;;;;;;10.43;6.43;;;;;;;9.07;100.00;101508.91;1047231;28;20309;-79
2023/05/06 02:29:56;;;;;;;8.75;7.50;;;;;;;9.06;100.00;101509.94;1048179;28;20294;-79
2023/05/06 02:30:29;;;;;;;10.70;6.72;;;;;;;9.02;100.00;101508.63;1047074;28;20310;-79
2023/05/06 02:31:01;;;;;;;13.00;7.28;;;;;;;8.97;100.00;101507.38;1041579;28;20324;-79
2023/05/06 02:31:32;;;;;;;11.93;8.18;;;;;;;8.97;100.00;101506.53;1047175;28;20622;-80
2023/05/06 02:32:05;;;;;;;21.10;8.77;;;;;;;8.96;100.00;101511.03;1047302;28;20343;-79
2023/05/06 02:32:36;;;;;;;13.98;8.68;;;;;;;8.93;100.00;101516.72;1045189;28;20345;-79
2023/05/06 02:33:09;;;;;;;28.30;9.77;;;;;;;8.67;100.00;101513.78;1051288;28;20402;-79
2023/05/06 02:33:43;;;;;;;16.83;7.93;;;;;;;8.62;100.00;101511.69;1047105;28;20310;-79
2023/05/06 02:34:15;;;;;;;19.75;8.65;;;;;;;8.62;100.00;101513.53;1045241;28;20283;-79
2023/05/06 02:34:47;;;;;;;9.18;7.80;;;;;;;8.66;100.00;101512.13;1042847;28;21011;-79
2023/05/06 02:35:18;;;;;;;11.82;8.35;;;;;;;8.70;100.00;101517.91;1043892;28;20316;-79
2023/05/06 02:35:50;;;;;;;9.40;8.02;;;;;;;8.53;100.00;101510.16;1048106;28;20306;-79
2023/05/06 02:36:22;;;;;;;13.77;7.53;;;;;;;8.41;100.00;101510.81;1051110;28;20290;-79